Time;durP1;ratioP1;P1;durP2;ratioP2;P2;SDS_P1;SDS_P2;PMS_P1;PMS_P2;Temp;Humidity;BMP_temperature;BMP_pressure;BME280_temperature;BME280_humidity;BME280_pressure;Samples;Min_cycle;Max_cycle;Signal;HPM_P1;HPM_P2
2021/10/16 00:01:37;;;;;;;5.30;4.77;;;10.50;99.90;;;;;;5023264;28;20251;-74
2021/10/16 00:04:03;;;;;;;9.80;4.50;;;10.50;99.90;;;;;;5050791;28;20303;-73
2021/10/16 00:06:28;;;;;;;6.33;5.07;;;10.50;99.90;;;;;;5035907;28;20223;-73
2021/10/16 00:08:54;;;;;;;5.30;4.40;;;10.50;99.90;;;;;;5002818;28;20232;-74
2021/10/16 00:11:19;;;;;;;6.93;4.53;;;10.50;99.90;;;;;;5023662;28;20211;-73
2021/10/16 00:13:45;;;;;;;5.20;4.70;;;10.50;99.90;;;;;;5015088;28;20749;-73
2021/10/16 00:16:11;;;;;;;6.13;5.13;;;10.40;99.90;;;;;;5011611;28;20228;-73
2021/10/16 00:18:37;;;;;;;9.10;5.43;;;10.40;99.90;;;;;;5024390;28;20222;-74
2021/10/16 00:21:04;;;;;;;6.43;5.40;;;10.40;99.90;;;;;;5042299;28;20223;-74
2021/10/16 00:23:30;;;;;;;5.33;4.63;;;10.40;99.90;;;;;;5012449;28;20455;-73
2021/10/16 00:25:56;;;;;;;8.00;4.90;;;10.40;99.90;;;;;;5033701;28;20472;-73
2021/10/16 00:28:22;;;;;;;6.70;5.40;;;10.30;99.90;;;;;;5038085;28;20782;-73
2021/10/16 00:30:48;;;;;;;6.13;4.47;;;10.30;99.90;;;;;;5039177;28;20614;-73
2021/10/16 00:33:15;;;;;;;6.60;4.90;;;10.30;99.90;;;;;;5034283;28;20216;-73
2021/10/16 00:35:41;;;;;;;5.30;4.30;;;10.30;99.90;;;;;;5037724;28;20546;-73
2021/10/16 00:38:07;;;;;;;4.50;3.77;;;10.20;99.90;;;;;;5023175;28;20494;-74
2021/10/16 00:40:33;;;;;;;4.97;4.10;;;10.20;99.90;;;;;;5033312;28;21002;-72
2021/10/16 00:42:58;;;;;;;5.37;4.30;;;10.20;99.90;;;;;;5033397;28;20541;-74
2021/10/16 00:45:25;;;;;;;8.10;4.90;;;10.20;99.90;;;;;;5015199;28;20315;-73
2021/10/16 00:47:51;;;;;;;6.23;4.73;;;10.20;99.90;;;;;;5020380;28;20236;-73
2021/10/16 00:50:20;;;;;;;5.37;4.50;;;10.20;99.90;;;;;;5034275;28;20450;-73
2021/10/16 00:52:46;;;;;;;4.63;3.90;;;10.20;99.90;;;;;;5037274;28;20458;-74
2021/10/16 00:55:14;;;;;;;5.83;4.03;;;10.10;99.90;;;;;;5022770;28;20446;-73
2021/10/16 00:57:40;;;;;;;4.67;3.83;;;10.10;99.90;;;;;;5050145;28;20473;-72
2021/10/16 01:00:09;;;;;;;5.73;3.77;;;10.00;99.90;;;;;;5045276;28;20446;-73
2021/10/16 01:02:34;;;;;;;6.43;4.40;;;10.00;99.90;;;;;;5021262;28;20535;-71
2021/10/16 01:05:01;;;;;;;5.50;3.90;;;10.00;99.90;;;;;;5039670;28;20907;-73
2021/10/16 01:07:30;;;;;;;4.37;3.90;;;9.90;99.90;;;;;;5015263;28;20238;-73
2021/10/16 01:09:57;;;;;;;6.00;4.13;;;9.70;99.90;;;;;;5036286;28;21010;-73
2021/10/16 01:12:23;;;;;;;5.23;4.60;;;9.70;99.90;;;;;;5035551;28;20433;-73
2021/10/16 01:14:55;;;;;;;5.47;3.93;;;9.70;99.90;;;;;;5045095;28;20442;-74
2021/10/16 01:17:21;;;;;;;5.30;4.40;;;9.80;99.90;;;;;;5021150;28;20943;-74
2021/10/16 01:19:53;;;;;;;5.17;4.30;;;9.80;99.90;;;;;;5028215;28;20446;-73
2021/10/16 01:22:20;;;;;;;7.13;4.50;;;9.80;99.90;;;;;;5044318;28;20445;-72
2021/10/16 01:24:46;;;;;;;4.43;3.90;;;9.80;99.90;;;;;;5021804;28;20634;-74
2021/10/16 01:27:12;;;;;;;4.63;4.13;;;9.80;99.90;;;;;;5042889;28;20884;-73
2021/10/16 01:29:38;;;;;;;6.00;4.93;;;9.80;99.90;;;;;;5018692;28;20462;-73
2021/10/16 01:32:04;;;;;;;5.77;4.60;;;9.70;99.90;;;;;;5040666;28;20220;-73
2021/10/16 01:34:30;;;;;;;5.63;4.10;;;9.70;99.90;;;;;;5030715;28;20454;-73
2021/10/16 01:36:56;;;;;;;5.53;4.40;;;9.70;99.90;;;;;;5030503;28;20650;-73
2021/10/16 01:39:26;;;;;;;4.87;3.57;;;9.70;99.90;;;;;;5017548;28;20450;-73
2021/10/16 01:41:52;;;;;;;4.73;4.23;;;9.70;99.90;;;;;;5015317;28;20491;-73
2021/10/16 01:44:18;;;;;;;5.93;4.83;;;9.70;99.90;;;;;;5023784;28;20467;-73
2021/10/16 01:46:44;;;;;;;6.60;4.87;;;9.60;99.90;;;;;;5017068;28;20217;-73
2021/10/16 01:49:18;;;;;;;4.70;3.97;;;9.60;99.90;;;;;;5018112;28;20251;-74
2021/10/16 01:51:47;;;;;;;5.27;4.67;;;9.60;99.90;;;;;;5018292;28;20447;-74
2021/10/16 01:54:14;;;;;;;5.60;3.93;;;9.60;99.90;;;;;;5033527;28;20455;-73
2021/10/16 01:56:49;;;;;;;6.57;4.17;;;9.50;99.90;;;;;;5034389;28;20476;-74
2021/10/16 01:59:20;;;;;;;5.10;4.50;;;9.50;99.90;;;;;;5010254;28;20482;-73
2021/10/16 02:02:04;;;;;;;8.60;4.30;;;9.50;99.90;;;;;;5034844;28;20311;-73
2021/10/16 02:04:34;;;;;;;4.97;4.10;;;9.40;99.90;;;;;;5034111;28;20450;-73
2021/10/16 02:07:00;;;;;;;6.77;5.10;;;9.40;99.90;;;;;;5033987;28;20530;-74
2021/10/16 02:09:30;;;;;;;6.20;4.67;;;9.40;99.90;;;;;;5009698;28;20458;-72
2021/10/16 02:11:56;;;;;;;8.13;4.80;;;9.40;99.90;;;;;;5017785;28;20447;-73
2021/10/16 02:14:21;;;;;;;6.83;4.80;;;9.30;99.90;;;;;;5033943;28;20247;-73
2021/10/16 02:16:49;;;;;;;6.43;4.97;;;9.30;99.90;;;;;;5034212;28;20255;-74
2021/10/16 02:19:19;;;;;;;7.27;4.83;;;9.30;99.90;;;;;;5016910;28;20482;-73
2021/10/16 02:21:46;;;;;;;5.47;4.10;;;9.30;99.90;;;;;;5017784;28;21023;-73
2021/10/16 02:24:12;;;;;;;5.90;4.40;;;9.30;99.90;;;;;;5015535;28;20459;-74
2021/10/16 02:26:40;;;;;;;6.27;4.53;;;9.30;99.90;;;;;;5017177;28;20208;-73
2021/10/16 02:29:08;;;;;;;6.03;3.90;;;9.30;99.90;;;;;;5012518;28;20455;-73
2021/10/16 02:31:36;;;;;;;6.10;4.60;;;9.30;99.90;;;;;;5017404;28;21032;-74
2021/10/16 02:34:06;;;;;;;7.03;4.50;;;9.30;99.90;;;;;;5016763;28;20458;-73
2021/10/16 02:36:40;;;;;;;5.90;4.37;;;9.20;99.90;;;;;;5010077;28;20459;-72
2021/10/16 02:39:06;;;;;;;5.73;4.47;;;9.20;99.90;;;;;;5012477;28;20455;-72
2021/10/16 02:41:35;;;;;;;8.43;6.13;;;9.10;99.90;;;;;;4993935;28;20232;-73
2021/10/16 02:44:01;;;;;;;5.73;4.17;;;9.10;99.90;;;;;;5013193;28;20500;-73
2021/10/16 02:46:29;;;;;;;9.37;4.80;;;9.10;99.90;;;;;;5003926;28;20561;-73
2021/10/16 02:48:54;;;;;;;7.30;4.63;;;9.10;99.90;;;;;;5012467;28;20991;-73
2021/10/16 02:51:20;;;;;;;6.00;4.80;;;9.10;99.90;;;;;;5025579;28;20244;-73
2021/10/16 02:53:47;;;;;;;5.57;4.50;;;9.10;99.90;;;;;;5015729;28;20213;-74
2021/10/16 02:56:13;;;;;;;5.70;4.40;;;9.00;99.90;;;;;;5036413;28;20526;-74
2021/10/16 02:58:39;;;;;;;7.00;4.70;;;9.00;99.90;;;;;;5032077;28;20486;-74
2021/10/16 03:01:05;;;;;;;7.00;4.00;;;9.00;99.90;;;;;;5015693;28;20483;-73
2021/10/16 03:03:31;;;;;;;7.40;5.00;;;9.00;99.90;;;;;;5029903;28;20302;-73
2021/10/16 03:05:58;;;;;;;7.73;4.60;;;8.90;99.90;;;;;;5018580;28;20220;-74
2021/10/16 03:08:23;;;;;;;5.87;4.53;;;8.90;99.90;;;;;;5015681;28;20459;-72
2021/10/16 03:10:49;;;;;;;7.13;4.93;;;8.90;99.90;;;;;;5023822;28;20244;-73
2021/10/16 03:13:25;;;;;;;11.87;4.50;;;8.90;99.90;;;;;;5018574;28;20214;-73
2021/10/16 03:15:53;;;;;;;6.00;4.50;;;8.90;99.90;;;;;;5021136;28;20448;-73
2021/10/16 03:18:19;;;;;;;4.60;4.10;;;8.80;99.90;;;;;;5015890;28;20578;-72
2021/10/16 03:20:45;;;;;;;9.47;4.80;;;8.80;99.90;;;;;;5029271;28;20559;-73
2021/10/16 03:23:13;;;;;;;6.20;4.50;;;8.80;99.90;;;;;;5025006;28;20239;-74
2021/10/16 03:25:39;;;;;;;5.60;4.20;;;8.80;99.90;;;;;;5019653;28;20473;-71
2021/10/16 03:28:05;;;;;;;6.90;4.40;;;8.80;99.90;;;;;;5012107;28;20714;-74
2021/10/16 03:30:32;;;;;;;5.40;4.00;;;8.70;99.90;;;;;;5028135;28;20323;-71
2021/10/16 03:32:58;;;;;;;5.70;4.23;;;8.70;99.90;;;;;;5034727;28;20892;-74
2021/10/16 03:35:24;;;;;;;8.27;4.97;;;8.70;99.90;;;;;;5020916;28;20451;-73
2021/10/16 03:37:49;;;;;;;8.77;3.97;;;8.70;99.90;;;;;;5019728;28;20574;-74
2021/10/16 03:40:16;;;;;;;6.07;4.40;;;8.70;99.90;;;;;;5032007;28;20644;-73
2021/10/16 03:42:42;;;;;;;6.73;4.60;;;8.70;99.90;;;;;;5009858;28;20448;-73
2021/10/16 03:45:17;;;;;;;5.83;4.10;;;8.70;99.90;;;;;;5031246;28;20703;-73
2021/10/16 03:47:43;;;;;;;5.80;3.90;;;8.70;99.90;;;;;;5020727;28;20451;-72
2021/10/16 03:50:09;;;;;;;5.53;3.93;;;8.70;99.90;;;;;;5032927;28;20232;-73
2021/10/16 03:52:35;;;;;;;6.87;3.50;;;8.60;99.90;;;;;;5008974;28;20208;-72
2021/10/16 03:55:03;;;;;;;4.33;3.90;;;8.60;99.90;;;;;;5009075;28;20526;-74
2021/10/16 03:57:28;;;;;;;5.97;4.20;;;8.60;99.90;;;;;;5011973;28;20512;-73
2021/10/16 03:59:54;;;;;;;5.93;3.50;;;8.50;99.90;;;;;;5012894;28;20479;-73
2021/10/16 04:02:20;;;;;;;5.80;3.73;;;8.50;99.90;;;;;;5016406;28;20243;-73
2021/10/16 04:04:46;;;;;;;11.73;3.93;;;8.50;99.90;;;;;;5006674;28;20224;-74
2021/10/16 04:07:12;;;;;;;5.20;3.37;;;8.50;99.90;;;;;;5006896;28;20303;-74
2021/10/16 04:09:41;;;;;;;8.40;4.33;;;8.40;99.90;;;;;;4999114;28;20482;-73
2021/10/16 04:12:07;;;;;;;5.60;4.03;;;8.40;99.90;;;;;;5020260;28;20486;-73
2021/10/16 04:14:33;;;;;;;6.77;4.23;;;8.40;99.90;;;;;;4995212;28;20299;-73
2021/10/16 04:16:59;;;;;;;4.97;3.67;;;8.40;99.90;;;;;;5022791;28;20317;-74
2021/10/16 04:19:25;;;;;;;6.57;4.40;;;8.40;99.90;;;;;;5025569;28;20448;-73
2021/10/16 04:21:51;;;;;;;6.33;4.43;;;8.40;99.90;;;;;;4995173;28;20470;-73
2021/10/16 04:24:17;;;;;;;6.60;3.60;;;8.30;99.90;;;;;;5002472;28;20869;-74
2021/10/16 04:26:42;;;;;;;5.70;3.57;;;8.30;99.90;;;;;;5028712;28;20212;-73
2021/10/16 04:29:09;;;;;;;7.77;4.67;;;8.30;99.90;;;;;;5010419;28;20287;-73
2021/10/16 04:31:53;;;;;;;6.30;4.53;;;8.30;99.90;;;;;;5028832;28;20834;-73
2021/10/16 04:34:19;;;;;;;6.43;4.40;;;8.30;99.90;;;;;;5028266;28;20443;-73
2021/10/16 04:36:45;;;;;;;5.40;4.40;;;8.30;99.90;;;;;;5016696;28;20212;-73
2021/10/16 04:39:10;;;;;;;4.97;3.70;;;8.20;99.90;;;;;;5002886;28;20609;-73
2021/10/16 04:41:37;;;;;;;6.30;4.63;;;8.20;99.90;;;;;;5028312;28;20231;-73
2021/10/16 04:44:05;;;;;;;7.47;4.97;;;8.20;99.90;;;;;;5005224;28;20287;-73
2021/10/16 04:46:31;;;;;;;4.53;3.80;;;8.20;99.90;;;;;;5013042;28;20527;-72
2021/10/16 04:49:04;;;;;;;4.40;3.40;;;8.10;99.90;;;;;;5014917;28;20541;-73
2021/10/16 04:51:32;;;;;;;5.30;3.80;;;8.10;99.90;;;;;;5032368;28;20475;-72
2021/10/16 04:53:58;;;;;;;5.30;4.00;;;8.10;99.90;;;;;;5031708;28;20465;-73
2021/10/16 04:56:23;;;;;;;9.27;4.97;;;8.10;99.90;;;;;;5016754;28;20435;-73
2021/10/16 04:58:49;;;;;;;11.80;6.50;;;8.00;99.90;;;;;;5011098;28;20224;-73
2021/10/16 05:01:15;;;;;;;8.37;5.60;;;8.00;99.90;;;;;;5013547;28;20221;-72
2021/10/16 05:03:43;;;;;;;9.40;5.20;;;8.00;99.90;;;;;;5013859;28;20464;-72
2021/10/16 05:06:09;;;;;;;10.77;5.50;;;7.90;99.90;;;;;;5000326;28;20439;-73
2021/10/16 05:08:38;;;;;;;11.07;6.73;;;7.90;99.90;;;;;;5022212;28;20657;-72
2021/10/16 05:11:05;;;;;;;8.90;6.30;;;7.90;99.90;;;;;;5003161;28;20620;-74
2021/10/16 05:13:31;;;;;;;10.93;7.17;;;7.80;99.90;;;;;;5008170;28;20444;-73
2021/10/16 05:15:56;;;;;;;7.17;5.40;;;7.80;99.90;;;;;;5019660;28;20216;-73
2021/10/16 05:18:26;;;;;;;8.93;5.40;;;7.80;99.90;;;;;;5008132;28;20223;-72
2021/10/16 05:20:53;;;;;;;8.30;5.13;;;7.80;99.90;;;;;;5029413;28;20475;-74
2021/10/16 05:23:22;;;;;;;6.53;5.00;;;7.70;99.90;;;;;;5021387;28;20517;-73
2021/10/16 05:25:51;;;;;;;6.70;4.10;;;7.70;99.90;;;;;;5015249;28;21094;-73
2021/10/16 05:28:18;;;;;;;5.70;4.30;;;7.70;99.90;;;;;;4997921;28;20440;-72
2021/10/16 05:30:46;;;;;;;7.27;4.23;;;7.60;99.90;;;;;;4995408;28;21059;-73
2021/10/16 05:33:12;;;;;;;5.53;4.17;;;7.60;99.90;;;;;;5004933;28;20480;-73
2021/10/16 05:35:43;;;;;;;6.70;4.53;;;7.60;99.90;;;;;;4998024;28;20213;-73
2021/10/16 05:38:12;;;;;;;7.13;4.20;;;7.60;99.90;;;;;;4996331;28;20324;-73
2021/10/16 05:40:39;;;;;;;7.43;4.63;;;7.60;99.90;;;;;;4988547;28;20471;-73
2021/10/16 05:43:05;;;;;;;7.33;4.57;;;7.50;99.90;;;;;;4992716;28;20495;-73
2021/10/16 05:45:31;;;;;;;8.80;5.10;;;7.50;99.90;;;;;;4991087;28;20451;-72
2021/10/16 05:47:59;;;;;;;8.37;4.90;;;7.50;99.90;;;;;;5014118;28;21007;-73
2021/10/16 05:50:25;;;;;;;6.37;4.60;;;7.50;99.90;;;;;;5008296;28;20447;-72
2021/10/16 05:52:50;;;;;;;7.33;4.80;;;7.50;99.90;;;;;;5002064;28;20224;-74
2021/10/16 05:55:17;;;;;;;7.17;4.33;;;7.50;99.90;;;;;;5014761;28;20213;-73
2021/10/16 05:57:43;;;;;;;5.87;3.60;;;7.50;99.90;;;;;;5017593;28;20455;-72
2021/10/16 06:00:09;;;;;;;5.63;4.00;;;7.50;99.90;;;;;;5019230;28;20576;-73
2021/10/16 06:02:51;;;;;;;6.30;3.77;;;7.40;99.90;;;;;;5013826;28;20451;-73
2021/10/16 06:05:23;;;;;;;29.03;15.67;;;7.40;99.90;;;;;;5036007;28;20443;-73
2021/10/16 06:07:49;;;;;;;26.80;16.70;;;7.40;99.90;;;;;;5014586;28;20474;-73
2021/10/16 06:10:15;;;;;;;16.73;10.77;;;7.40;99.90;;;;;;5033094;28;21030;-74
2021/10/16 06:12:42;;;;;;;18.90;11.33;;;7.30;99.90;;;;;;5038551;28;20236;-73
2021/10/16 06:15:08;;;;;;;11.90;8.67;;;7.30;99.90;;;;;;5038209;28;20477;-73
2021/10/16 06:17:34;;;;;;;27.43;13.73;;;7.30;99.90;;;;;;5040910;28;20220;-72
2021/10/16 06:20:00;;;;;;;34.10;19.90;;;7.20;99.90;;;;;;5040029;28;20477;-74
2021/10/16 06:22:26;;;;;;;26.20;14.83;;;7.20;99.90;;;;;;5035915;28;20486;-72
2021/10/16 06:24:52;;;;;;;24.30;13.17;;;7.20;99.90;;;;;;5023540;28;20451;-73
2021/10/16 06:27:20;;;;;;;12.80;9.07;;;7.20;99.90;;;;;;5032688;28;20270;-73
2021/10/16 06:29:46;;;;;;;13.43;7.30;;;7.20;99.90;;;;;;5020149;28;20455;-72
2021/10/16 06:32:12;;;;;;;10.77;7.03;;;7.20;99.90;;;;;;5018525;28;20476;-73
2021/10/16 06:34:40;;;;;;;8.70;6.83;;;7.20;99.90;;;;;;5030991;28;20447;-71
2021/10/16 06:37:05;;;;;;;9.03;6.60;;;7.20;99.90;;;;;;5036175;28;20469;-73
2021/10/16 06:39:32;;;;;;;11.83;7.37;;;7.10;99.90;;;;;;5028136;28;20220;-72
2021/10/16 06:42:00;;;;;;;10.67;7.10;;;7.10;99.90;;;;;;5016085;28;20543;-73
2021/10/16 06:44:26;;;;;;;10.17;6.97;;;7.10;99.90;;;;;;5035988;28;21110;-73
2021/10/16 06:46:58;;;;;;;11.17;6.73;;;7.10;99.90;;;;;;5040015;28;20260;-74
2021/10/16 06:49:26;;;;;;;9.90;6.30;;;7.10;99.90;;;;;;5040225;28;20455;-73
2021/10/16 06:51:52;;;;;;;14.70;6.80;;;7.10;99.90;;;;;;5025488;28;20529;-74
2021/10/16 06:54:18;;;;;;;12.13;6.10;;;7.10;99.90;;;;;;5012796;28;20906;-73
2021/10/16 06:56:45;;;;;;;9.33;6.20;;;7.10;99.90;;;;;;5008589;28;20643;-72
2021/10/16 06:59:11;;;;;;;17.53;7.47;;;7.20;99.90;;;;;;5030033;28;20541;-73
2021/10/16 07:01:37;;;;;;;10.00;6.80;;;7.20;99.90;;;;;;5020055;28;20511;-72
2021/10/16 07:04:11;;;;;;;10.07;7.20;;;7.20;99.90;;;;;;5020164;28;20459;-74
2021/10/16 07:06:39;;;;;;;9.00;4.47;;;7.20;99.90;;;;;;5017806;28;20446;-72
2021/10/16 07:09:08;;;;;;;10.07;5.57;;;7.20;99.90;;;;;;5019593;28;20459;-73
2021/10/16 07:11:34;;;;;;;12.03;5.70;;;7.20;99.90;;;;;;5035911;28;20967;-72
2021/10/16 07:13:59;;;;;;;8.67;5.07;;;7.20;99.90;;;;;;5037117;28;20231;-73
2021/10/16 07:16:26;;;;;;;11.43;8.17;;;7.20;99.90;;;;;;5021496;28;20216;-73
2021/10/16 07:18:52;;;;;;;12.27;7.80;;;7.20;99.90;;;;;;5035344;28;20533;-73
2021/10/16 07:21:18;;;;;;;18.53;7.60;;;7.20;99.90;;;;;;5013564;28;20776;-73
2021/10/16 07:23:45;;;;;;;11.03;6.40;;;7.20;99.90;;;;;;5033065;28;20239;-72
2021/10/16 07:26:11;;;;;;;9.67;6.47;;;7.20;99.90;;;;;;5060712;28;20458;-72
2021/10/16 07:28:37;;;;;;;9.60;6.70;;;7.30;99.90;;;;;;5041403;28;20454;-72
2021/10/16 07:31:03;;;;;;;15.10;6.97;;;7.30;99.90;;;;;;5015649;28;20553;-72
2021/10/16 07:33:28;;;;;;;10.87;6.60;;;7.30;99.90;;;;;;5021603;28;20221;-72
2021/10/16 07:35:54;;;;;;;19.20;6.93;;;7.30;99.90;;;;;;5013283;28;20217;-73
2021/10/16 07:38:20;;;;;;;14.00;7.87;;;7.40;99.90;;;;;;5027500;28;20685;-73
2021/10/16 07:40:45;;;;;;;12.73;7.40;;;7.40;99.90;;;;;;5035878;28;20216;-73
2021/10/16 07:43:11;;;;;;;11.93;7.40;;;7.40;99.90;;;;;;5035427;28;20211;-73
2021/10/16 07:45:37;;;;;;;18.20;7.00;;;7.40;99.90;;;;;;5037749;28;20646;-72
2021/10/16 07:48:03;;;;;;;10.10;6.20;;;7.40;99.90;;;;;;5024197;28;20243;-73
2021/10/16 07:50:29;;;;;;;11.97;6.47;;;7.50;99.90;;;;;;5040557;28;20216;-73
2021/10/16 07:52:55;;;;;;;13.27;7.17;;;7.50;99.90;;;;;;5018087;28;20450;-74
2021/10/16 07:55:20;;;;;;;14.40;6.30;;;7.50;99.90;;;;;;5021880;28;20623;-73
2021/10/16 07:57:46;;;;;;;13.67;6.50;;;7.50;99.90;;;;;;5007824;28;20241;-72
2021/10/16 08:00:12;;;;;;;8.50;6.20;;;7.50;99.90;;;;;;5022234;28;20216;-73
2021/10/16 08:02:39;;;;;;;9.77;5.90;;;7.60;99.90;;;;;;5016051;28;20233;-73
2021/10/16 08:05:05;;;;;;;7.80;5.57;;;7.60;99.90;;;;;;5015626;28;20448;-73
2021/10/16 08:07:31;;;;;;;7.27;5.30;;;7.60;99.90;;;;;;5000893;28;20521;-73
2021/10/16 08:09:57;;;;;;;10.47;5.50;;;7.70;99.90;;;;;;5027827;28;20992;-73
2021/10/16 08:12:24;;;;;;;13.83;5.27;;;7.70;99.90;;;;;;5037057;28;20463;-73
2021/10/16 08:14:50;;;;;;;6.33;4.70;;;7.70;99.90;;;;;;5015975;28;20243;-73
2021/10/16 08:17:16;;;;;;;10.40;4.90;;;7.80;99.90;;;;;;5030532;28;20462;-74
2021/10/16 08:19:41;;;;;;;7.57;4.90;;;7.80;99.90;;;;;;5034338;28;20552;-73
2021/10/16 08:22:09;;;;;;;10.73;5.73;;;7.80;99.90;;;;;;5025251;28;20223;-73
2021/10/16 08:24:34;;;;;;;8.73;5.93;;;7.80;99.90;;;;;;5028378;28;20225;-73
2021/10/16 08:27:00;;;;;;;10.83;5.93;;;7.90;99.90;;;;;;5006192;28;20463;-74
2021/10/16 08:29:26;;;;;;;11.60;6.50;;;7.90;99.90;;;;;;5010385;28;20239;-73
2021/10/16 08:31:52;;;;;;;7.47;6.07;;;7.90;99.90;;;;;;5019376;28;20752;-73
2021/10/16 08:34:18;;;;;;;8.30;6.33;;;8.00;99.90;;;;;;4999643;28;20213;-72
2021/10/16 08:36:43;;;;;;;12.73;6.80;;;8.00;99.90;;;;;;5010265;28;20498;-71
2021/10/16 08:39:09;;;;;;;13.07;6.70;;;8.00;99.90;;;;;;5013385;28;20212;-73
2021/10/16 08:41:35;;;;;;;13.17;7.40;;;8.00;99.90;;;;;;5032880;28;20686;-72
2021/10/16 08:44:02;;;;;;;10.70;6.93;;;8.10;99.90;;;;;;5012697;28;20225;-73
2021/10/16 08:46:29;;;;;;;15.17;8.37;;;8.10;99.90;;;;;;5004901;28;20448;-73
2021/10/16 08:49:00;;;;;;;9.90;7.50;;;8.10;99.90;;;;;;5010953;28;20466;-73
2021/10/16 08:51:26;;;;;;;13.33;8.17;;;8.20;99.90;;;;;;5024585;28;20451;-73
2021/10/16 08:53:52;;;;;;;9.00;6.10;;;8.30;99.90;;;;;;5026206;28;20559;-73
2021/10/16 08:56:20;;;;;;;12.17;6.17;;;8.30;99.90;;;;;;5024229;28;20259;-73
2021/10/16 08:58:46;;;;;;;11.83;6.53;;;8.40;99.90;;;;;;5036110;28;20221;-73
2021/10/16 09:01:11;;;;;;;12.83;7.80;;;8.40;99.90;;;;;;5015517;28;20463;-73
2021/10/16 09:03:50;;;;;;;15.90;6.73;;;8.50;99.90;;;;;;5041804;28;20208;-74
2021/10/16 09:06:27;;;;;;;8.20;6.47;;;8.60;99.90;;;;;;5018389;28;20211;-74
2021/10/16 09:09:03;;;;;;;12.07;6.37;;;8.70;99.90;;;;;;5016047;28;20451;-74
2021/10/16 09:11:40;;;;;;;11.80;6.53;;;8.90;99.90;;;;;;5029126;28;20962;-74
2021/10/16 09:14:12;;;;;;;12.33;7.00;;;9.10;99.90;;;;;;5031682;28;20893;-74
2021/10/16 09:16:46;;;;;;;8.37;6.57;;;9.20;99.90;;;;;;5032069;28;20991;-74
2021/10/16 09:19:21;;;;;;;9.27;6.20;;;9.40;99.90;;;;;;5036052;28;20455;-74
2021/10/16 09:21:54;;;;;;;7.27;6.10;;;9.50;99.90;;;;;;5044248;28;20474;-74
2021/10/16 09:24:29;;;;;;;11.00;6.50;;;9.60;99.90;;;;;;5028886;28;20834;-74
2021/10/16 09:27:04;;;;;;;12.00;6.70;;;9.70;99.90;;;;;;5031235;28;20824;-74
2021/10/16 09:29:32;;;;;;;13.23;7.80;;;9.80;99.90;;;;;;5031770;28;20474;-73
2021/10/16 09:32:18;;;;;;;16.23;10.73;;;9.90;99.90;;;;;;5031847;28;20466;-74
2021/10/16 09:34:45;;;;;;;14.77;9.70;;;10.00;99.90;;;;;;5015749;28;20458;-74
2021/10/16 09:37:14;;;;;;;16.83;11.73;;;10.10;99.90;;;;;;5014415;28;20546;-74
2021/10/16 09:39:54;;;;;;;15.87;11.50;;;10.20;99.90;;;;;;5031411;28;20488;-75
2021/10/16 09:42:33;;;;;;;17.57;13.07;;;10.30;99.90;;;;;;5030982;28;20459;-74
2021/10/16 09:45:06;;;;;;;19.17;13.83;;;10.40;99.90;;;;;;5032651;28;20452;-74
2021/10/16 09:47:32;;;;;;;19.43;12.33;;;10.40;99.90;;;;;;5032350;28;20447;-73
2021/10/16 09:50:06;;;;;;;16.70;11.60;;;10.50;99.90;;;;;;5034549;28;20470;-73
2021/10/16 09:52:34;;;;;;;20.07;14.27;;;10.60;99.90;;;;;;5014737;28;20211;-74
2021/10/16 09:54:59;;;;;;;25.70;14.33;;;10.70;99.90;;;;;;5016782;28;20516;-74
2021/10/16 09:57:26;;;;;;;14.30;10.57;;;10.80;99.90;;;;;;5033584;28;21027;-73
2021/10/16 09:59:52;;;;;;;13.70;8.60;;;11.00;99.90;;;;;;5013829;28;20232;-72
2021/10/16 10:02:19;;;;;;;15.93;9.60;;;11.10;99.90;;;;;;5025302;28;20458;-72
2021/10/16 10:04:46;;;;;;;19.50;9.80;;;11.20;99.90;;;;;;5041404;28;20220;-73
2021/10/16 10:07:13;;;;;;;17.87;9.57;;;11.40;99.90;;;;;;5019963;28;20835;-74
2021/10/16 10:09:41;;;;;;;9.67;7.93;;;11.50;99.90;;;;;;4988684;28;20985;-73
2021/10/16 10:12:10;;;;;;;10.17;8.00;;;11.60;99.90;;;;;;5001994;28;20530;-75
2021/10/16 10:14:40;;;;;;;15.40;9.30;;;11.70;99.90;;;;;;5013274;28;20451;-75
2021/10/16 10:17:07;;;;;;;12.47;8.30;;;11.80;99.90;;;;;;4990062;28;20470;-74
2021/10/16 10:19:41;;;;;;;12.20;7.60;;;11.70;99.90;;;;;;5005785;28;20926;-73
2021/10/16 10:22:15;;;;;;;14.03;8.00;;;11.70;99.90;;;;;;4982831;28;20480;-74
2021/10/16 10:24:50;;;;;;;11.50;8.47;;;11.70;99.90;;;;;;4978045;28;20456;-71
2021/10/16 10:27:17;;;;;;;10.63;8.47;;;11.80;99.90;;;;;;5003773;28;20489;-72
2021/10/16 10:29:46;;;;;;;14.70;7.70;;;11.70;99.90;;;;;;5016675;28;20462;-73
2021/10/16 10:32:15;;;;;;;12.70;7.87;;;11.80;99.90;;;;;;5002515;28;20470;-73
2021/10/16 10:35:00;;;;;;;7.43;6.13;;;11.90;99.90;;;;;;5026684;28;20747;-72
2021/10/16 10:37:38;;;;;;;10.13;7.37;;;12.10;99.90;;;;;;5032091;28;20604;-74
2021/10/16 10:40:22;;;;;;;10.30;6.23;;;12.20;99.90;;;;;;5017623;28;20570;-73
2021/10/16 10:42:53;;;;;;;11.37;6.17;;;12.50;99.90;;;;;;4997893;28;20451;-72
2021/10/16 10:45:34;;;;;;;8.97;6.10;;;12.60;99.90;;;;;;5040147;28;20438;-73
2021/10/16 10:48:08;;;;;;;7.83;5.27;;;12.70;99.90;;;;;;5036076;28;20528;-74
2021/10/16 10:50:56;;;;;;;8.30;6.40;;;12.70;99.90;;;;;;5035781;28;20438;-72
2021/10/16 10:53:30;;;;;;;8.37;5.60;;;12.60;99.90;;;;;;5052561;28;20437;-74
2021/10/16 10:56:01;;;;;;;6.70;5.43;;;12.80;99.90;;;;;;5015217;28;20493;-73
2021/10/16 10:58:58;;;;;;;6.30;4.83;;;12.90;99.90;;;;;;5013302;28;21028;-73
2021/10/16 11:01:46;;;;;;;8.23;4.90;;;13.00;99.90;;;;;;5011890;28;20887;-73
2021/10/16 11:04:45;;;;;;;4.73;4.07;;;13.10;99.90;;;;;;5028824;28;20456;-74
2021/10/16 11:07:33;;;;;;;7.57;3.97;;;13.30;99.90;;;;;;5027930;28;20452;-76
2021/10/16 11:10:01;;;;;;;7.10;4.03;;;13.40;99.90;;;;;;5014801;28;20447;-72
2021/10/16 11:12:33;;;;;;;4.60;3.73;;;13.50;99.90;;;;;;5010230;28;20824;-73
2021/10/16 11:14:59;;;;;;;7.57;5.23;;;13.60;99.90;;;;;;5039258;28;20482;-74
2021/10/16 11:17:37;;;;;;;3.53;2.97;;;13.60;99.90;;;;;;5019300;28;20445;-73
2021/10/16 11:20:06;;;;;;;3.90;3.50;;;13.60;99.90;;;;;;4998151;28;20459;-74
2021/10/16 11:22:52;;;;;;;7.27;4.03;;;13.60;99.90;;;;;;5029338;28;20463;-74
2021/10/16 11:25:30;;;;;;;5.90;4.37;;;13.80;99.90;;;;;;5012734;28;20475;-74
2021/10/16 11:28:13;;;;;;;7.73;3.87;;;13.80;99.90;;;;;;5010394;28;20457;-73
2021/10/16 11:30:42;;;;;;;7.10;6.13;;;13.70;99.90;;;;;;4985879;28;20448;-74
2021/10/16 11:33:13;;;;;;;8.77;6.27;;;13.80;99.90;;;;;;5019750;28;20530;-73
2021/10/16 11:35:41;;;;;;;5.40;4.77;;;13.80;99.90;;;;;;5009189;28;20506;-74
2021/10/16 11:38:08;;;;;;;9.27;5.50;;;13.70;99.90;;;;;;5018343;28;20494;-73
2021/10/16 11:40:36;;;;;;;6.50;4.90;;;13.80;99.90;;;;;;5026330;28;20509;-73
2021/10/16 11:43:11;;;;;;;14.20;11.30;;;13.80;99.90;;;;;;5028101;28;20527;-73
2021/10/16 11:45:38;;;;;;;18.53;13.73;;;13.80;99.90;;;;;;5010477;28;20457;-74
2021/10/16 11:48:07;;;;;;;9.50;6.90;;;13.80;99.90;;;;;;5010184;28;20467;-74
2021/10/16 11:50:34;;;;;;;4.70;4.23;;;13.90;99.90;;;;;;5010261;28;20452;-74
2021/10/16 11:53:18;;;;;;;3.97;3.20;;;13.90;99.90;;;;;;5009361;28;20451;-73
2021/10/16 11:55:48;;;;;;;5.03;2.60;;;13.80;99.90;;;;;;4991205;28;20448;-72
2021/10/16 11:58:17;;;;;;;5.07;3.20;;;13.80;99.90;;;;;;5006433;28;20456;-73
2021/10/16 12:00:47;;;;;;;4.23;3.60;;;13.80;99.90;;;;;;4997681;28;21050;-74
2021/10/16 12:03:19;;;;;;;5.10;2.93;;;13.80;99.90;;;;;;5021949;28;20644;-74
2021/10/16 12:05:49;;;;;;;5.07;3.70;;;13.90;99.90;;;;;;5026167;28;20530;-73
2021/10/16 12:08:21;;;;;;;3.57;3.27;;;13.90;99.90;;;;;;4999575;28;20456;-74
2021/10/16 12:10:51;;;;;;;4.00;2.43;;;14.10;99.90;;;;;;5006999;28;20470;-74
2021/10/16 12:13:39;;;;;;;4.70;4.07;;;14.30;99.90;;;;;;5024863;28;20455;-74
2021/10/16 12:16:16;;;;;;;4.90;4.00;;;14.50;99.90;;;;;;5026054;28;20447;-73
2021/10/16 12:18:48;;;;;;;6.63;5.00;;;14.50;99.90;;;;;;5010391;28;20463;-74
2021/10/16 12:21:24;;;;;;;7.17;4.70;;;14.40;99.90;;;;;;5009172;28;20471;-73
2021/10/16 12:23:50;;;;;;;11.27;4.43;;;14.50;99.90;;;;;;5010126;28;20447;-74
2021/10/16 12:26:20;;;;;;;5.90;3.60;;;14.60;99.90;;;;;;5026302;28;20848;-73
2021/10/16 12:28:47;;;;;;;3.03;2.70;;;14.60;99.90;;;;;;5025610;28;20209;-74
2021/10/16 12:31:13;;;;;;;7.10;6.03;;;14.70;99.90;;;;;;5026467;28;20487;-74
2021/10/16 12:33:55;;;;;;;11.67;6.03;;;14.60;99.90;;;;;;5026076;28;20531;-73
2021/10/16 12:36:25;;;;;;;7.20;3.60;;;14.60;99.90;;;;;;5026112;28;20450;-74
2021/10/16 12:38:52;;;;;;;8.50;4.37;;;14.40;99.90;;;;;;5008672;28;20482;-74
2021/10/16 12:41:23;;;;;;;6.93;4.43;;;14.40;99.90;;;;;;5005347;28;20464;-74
2021/10/16 12:43:48;;;;;;;7.30;4.07;;;14.40;99.90;;;;;;4995780;28;20467;-73
2021/10/16 12:46:29;;;;;;;14.27;3.37;;;14.40;99.90;;;;;;4994256;28;20462;-74
2021/10/16 12:48:56;;;;;;;2.73;2.53;;;14.30;99.90;;;;;;5001041;28;20231;-74
2021/10/16 12:51:40;;;;;;;7.77;3.60;;;14.40;99.90;;;;;;5017157;28;20510;-73
2021/10/16 12:54:07;;;;;;;3.00;2.50;;;14.40;99.90;;;;;;4991869;28;20451;-74
2021/10/16 12:56:33;;;;;;;3.70;2.70;;;14.40;99.90;;;;;;5009259;28;20451;-73
2021/10/16 12:58:59;;;;;;;5.17;2.83;;;14.50;99.90;;;;;;5008958;28;20455;-74